createdAt,value
2019-04-22T00:01:34.536Z,9.70
2019-04-22T00:04:09.075Z,9.80
2019-04-22T00:06:58.376Z,9.80
2019-04-22T00:09:30.939Z,9.80
2019-04-22T00:12:06.088Z,9.70
2019-04-22T00:14:28.324Z,9.70
2019-04-22T00:19:43.323Z,9.70
2019-04-22T00:22:18.220Z,9.70
2019-04-22T00:24:46.340Z,9.70
2019-04-22T00:27:20.700Z,9.70
2019-04-22T00:32:24.278Z,9.70
2019-04-22T00:34:56.002Z,9.60
2019-04-22T00:37:29.985Z,9.40
2019-04-22T00:40:16.463Z,9.30
2019-04-22T00:42:29.224Z,9.10
2019-04-22T00:47:32.447Z,9.00
2019-04-22T00:50:18.969Z,8.80
2019-04-22T00:52:34.294Z,8.80
2019-04-22T00:57:41.541Z,8.60
2019-04-22T01:00:11.964Z,8.60
2019-04-22T01:02:41.596Z,8.50
2019-04-22T01:05:14.903Z,8.40
2019-04-22T01:07:44.547Z,8.20
2019-04-22T01:10:19.049Z,8.00
2019-04-22T01:12:44.360Z,7.80
2019-04-22T01:15:23.613Z,7.60
2019-04-22T01:17:53.012Z,7.50
2019-04-22T01:20:45.371Z,7.50
2019-04-22T01:22:52.154Z,7.40
2019-04-22T01:25:19.230Z,7.30
2019-04-22T01:27:48.877Z,7.20
2019-04-22T01:30:19.700Z,7.20
2019-04-22T01:32:41.825Z,7.40
2019-04-22T01:35:26.306Z,7.50
2019-04-22T01:37:58.218Z,7.60
2019-04-22T01:40:39.087Z,7.60
2019-04-22T01:43:14.726Z,7.60
2019-04-22T01:45:39.871Z,7.40
2019-04-22T01:48:11.174Z,7.40
2019-04-22T01:50:48.558Z,7.40
2019-04-22T01:53:22.254Z,7.50
2019-04-22T01:58:11.081Z,7.60
2019-04-22T02:00:53.456Z,7.70
2019-04-22T02:03:26.531Z,7.70
2019-04-22T02:05:56.566Z,7.80
2019-04-22T02:08:31.271Z,7.80
2019-04-22T02:10:54.802Z,7.80
2019-04-22T02:13:30.844Z,7.80
2019-04-22T02:16:03.510Z,7.70
2019-04-22T02:18:39.392Z,7.70
2019-04-22T02:21:01.710Z,7.80
2019-04-22T02:23:49.008Z,7.80
2019-04-22T02:26:12.660Z,7.80
2019-04-22T02:36:22.911Z,7.70
2019-04-22T02:39:08.004Z,7.70
2019-04-22T02:49:04.124Z,7.60
2019-04-22T02:51:28.539Z,7.60
2019-04-22T02:54:27.078Z,7.50
2019-04-22T03:06:34.680Z,7.50
2019-04-22T03:16:48.813Z,7.30
2019-04-22T03:26:48.968Z,7.30
2019-04-22T03:35:37.134Z,7.20
2019-04-22T03:40:22.418Z,7.00
2019-04-22T03:45:28.095Z,6.90
2019-04-22T03:47:53.588Z,6.80
2019-04-22T03:50:28.182Z,6.70
2019-04-22T03:52:56.569Z,6.70
2019-04-22T03:55:25.595Z,6.70
2019-04-22T03:57:53.637Z,6.70
2019-04-22T04:00:36.042Z,6.60
2019-04-22T04:05:37.647Z,6.60
2019-04-22T04:13:12.221Z,6.50
2019-04-22T04:15:32.798Z,6.40
2019-04-22T04:17:59.425Z,6.40
2019-04-22T04:20:36.901Z,6.50
2019-04-22T04:28:29.774Z,6.50
2019-04-22T04:30:42.867Z,6.50
2019-04-22T04:33:21.184Z,6.60
2019-04-22T04:38:12.488Z,6.60
2019-04-22T04:41:06.225Z,6.50
2019-04-22T04:43:33.234Z,6.50
2019-04-22T04:51:11.821Z,6.40
2019-04-22T04:55:51.753Z,6.50
2019-04-22T04:58:47.628Z,6.60
2019-04-22T05:03:39.244Z,6.90
2019-04-22T05:06:09.221Z,7.00
2019-04-22T05:08:54.410Z,7.20
2019-04-22T05:11:05.580Z,7.40
2019-04-22T05:13:39.723Z,7.50
2019-04-22T05:18:41.253Z,7.80
2019-04-22T05:23:50.569Z,8.20
2019-04-22T05:26:12.512Z,8.30
2019-04-22T05:28:35.234Z,8.40
2019-04-22T05:31:16.015Z,8.60
2019-04-22T05:33:46.028Z,8.80
2019-04-22T05:36:14.376Z,9.00
2019-04-22T05:38:50.139Z,9.20
2019-04-22T05:41:16.272Z,9.30
2019-04-22T05:43:50.058Z,9.40
2019-04-22T05:46:20.657Z,9.50
2019-04-22T05:48:53.913Z,9.60
2019-04-22T05:51:23.947Z,9.70
2019-04-22T05:53:53.903Z,9.80
2019-04-22T05:56:27.793Z,9.80
2019-04-22T05:58:58.239Z,9.80
2019-04-22T06:04:03.937Z,10.00
2019-04-22T06:06:32.374Z,10.00
2019-04-22T06:11:29.481Z,10.30
2019-04-22T06:14:04.505Z,10.40
2019-04-22T06:16:38.149Z,10.50
2019-04-22T06:19:12.576Z,10.60
2019-04-22T06:21:38.328Z,10.80
2019-04-22T06:24:16.720Z,10.80
2019-04-22T06:27:01.533Z,10.80
2019-04-22T06:29:15.932Z,10.90
2019-04-22T06:32:10.909Z,11.10
2019-04-22T06:34:17.679Z,11.20
2019-04-22T06:36:51.077Z,11.20
2019-04-22T06:39:24.239Z,11.30
2019-04-22T06:44:25.969Z,11.40
2019-04-22T06:46:52.619Z,11.50
2019-04-22T06:49:33.430Z,11.60
2019-04-22T06:51:53.717Z,11.70
2019-04-22T06:54:28.316Z,11.70
2019-04-22T07:02:04.032Z,11.80
2019-04-22T07:04:30.366Z,11.90
2019-04-22T07:07:02.246Z,12.00
2019-04-22T07:12:06.404Z,12.30
2019-04-22T07:14:35.193Z,12.40
2019-04-22T07:17:07.508Z,12.50
2019-04-22T07:19:37.165Z,12.60
2019-04-22T07:24:47.851Z,12.80
2019-04-22T07:27:14.666Z,12.90
2019-04-22T07:29:46.790Z,13.10
2019-04-22T07:32:15.351Z,13.30
2019-04-22T07:37:28.302Z,13.50
2019-04-22T07:40:03.240Z,13.60
2019-04-22T07:42:24.559Z,13.70
2019-04-22T07:45:01.114Z,13.70
2019-04-22T07:47:37.765Z,13.80
2019-04-22T07:49:59.437Z,14.00
2019-04-22T07:52:27.844Z,14.10
2019-04-22T07:54:58.327Z,14.40
2019-04-22T07:57:47.157Z,14.50
2019-04-22T08:00:04.101Z,14.60
2019-04-22T08:02:39.162Z,14.70
2019-04-22T08:07:34.630Z,14.90
2019-04-22T08:12:38.981Z,15.10
2019-04-22T08:15:06.072Z,15.20
2019-04-22T08:20:16.634Z,15.40
2019-04-22T08:22:47.663Z,15.50
2019-04-22T08:25:12.561Z,15.60
2019-04-22T08:27:46.746Z,15.70
2019-04-22T08:30:23.597Z,15.80
2019-04-22T08:32:48.930Z,16.00
2019-04-22T08:35:20.255Z,16.20
2019-04-22T08:37:51.225Z,16.40
2019-04-22T08:42:56.766Z,16.60
2019-04-22T08:45:31.783Z,16.80
2019-04-22T08:47:55.312Z,16.90
2019-04-22T08:50:29.829Z,17.00
2019-04-22T08:53:05.757Z,17.00
2019-04-22T08:55:31.350Z,17.10
2019-04-22T08:58:16.070Z,17.20
2019-04-22T09:00:39.756Z,17.20
2019-04-22T09:03:04.642Z,17.30
2019-04-22T09:13:10.225Z,18.00
2019-04-22T09:15:45.108Z,18.10
2019-04-22T09:18:17.627Z,18.30
2019-04-22T09:20:48.681Z,18.10
2019-04-22T09:23:17.702Z,18.10
2019-04-22T09:25:48.473Z,18.10
2019-04-22T09:28:23.069Z,18.20
2019-04-22T09:31:01.546Z,18.30
2019-04-22T09:36:33.897Z,18.60
2019-04-22T09:39:19.380Z,18.70
2019-04-22T09:41:33.759Z,18.90
2019-04-22T09:46:36.153Z,19.10
2019-04-22T09:49:06.446Z,19.20
2019-04-22T09:51:36.948Z,19.30
2019-04-22T09:59:07.729Z,19.60
2019-04-22T10:01:40.978Z,19.60
2019-04-22T10:04:25.365Z,19.50
2019-04-22T10:06:54.776Z,19.60
2019-04-22T10:09:34.356Z,19.80
2019-04-22T10:12:02.425Z,20.00
2019-04-22T10:14:23.911Z,20.20
2019-04-22T10:16:50.719Z,20.10
2019-04-22T10:19:23.243Z,20.20
2019-04-22T10:24:21.561Z,20.50
2019-04-22T10:26:59.994Z,20.50
2019-04-22T10:29:24.826Z,20.60
2019-04-22T10:34:16.864Z,20.80
2019-04-22T10:36:37.859Z,20.70
2019-04-22T10:39:08.555Z,20.90
2019-04-22T10:41:38.952Z,20.80
2019-04-22T10:44:09.031Z,20.90
2019-04-22T10:46:40.131Z,21.10
2019-04-22T10:49:10.470Z,21.00
2019-04-22T10:51:40.456Z,20.90
2019-04-22T10:54:11.355Z,21.00
2019-04-22T10:56:41.227Z,21.20
2019-04-22T10:59:10.973Z,21.30
2019-04-22T11:01:40.623Z,21.50
2019-04-22T11:04:11.194Z,21.70
2019-04-22T11:06:50.706Z,21.80
2019-04-22T11:09:12.884Z,21.80
2019-04-22T11:11:52.106Z,22.00
2019-04-22T11:14:16.753Z,22.10
2019-04-22T11:16:47.684Z,22.10
2019-04-22T11:19:17.443Z,21.80
2019-04-22T11:21:57.925Z,21.50
2019-04-22T11:24:18.853Z,21.50
2019-04-22T11:26:49.321Z,21.50
2019-04-22T11:29:19.547Z,21.50
2019-04-22T11:31:50.513Z,21.80
2019-04-22T11:34:21.327Z,22.00
2019-04-22T11:36:52.595Z,22.10
2019-04-22T11:39:23.708Z,22.00
2019-04-22T11:41:53.942Z,22.20
2019-04-22T11:44:25.282Z,22.40
2019-04-22T11:46:55.259Z,22.70
2019-04-22T11:49:25.851Z,22.70
2019-04-22T11:51:56.072Z,23.00
2019-04-22T11:54:25.903Z,23.20
2019-04-22T11:56:56.854Z,23.30
2019-04-22T11:59:26.819Z,23.50
2019-04-22T12:01:57.039Z,23.90
2019-04-22T12:04:27.644Z,23.90
2019-04-22T12:06:57.989Z,23.90
2019-04-22T12:09:28.037Z,24.00
2019-04-22T12:11:58.065Z,24.10
2019-04-22T12:14:27.981Z,24.00
2019-04-22T12:16:57.592Z,23.90
2019-04-22T12:19:27.212Z,23.90
2019-04-22T12:21:57.243Z,24.30
2019-04-22T12:24:28.107Z,24.00
2019-04-22T12:26:58.262Z,23.60
2019-04-22T12:29:28.966Z,23.70
2019-04-22T12:31:59.678Z,24.00
2019-04-22T12:34:29.436Z,24.40
2019-04-22T12:37:00.386Z,24.40
2019-04-22T12:39:31.517Z,24.40
2019-04-22T12:42:02.502Z,24.60
2019-04-22T12:44:32.736Z,24.70
2019-04-22T12:47:04.359Z,24.50
2019-04-22T12:49:36.995Z,24.80
2019-04-22T12:52:05.571Z,25.00
2019-04-22T12:54:37.331Z,24.60
2019-04-22T12:57:07.118Z,24.80
2019-04-22T12:59:37.401Z,24.90
2019-04-22T13:02:09.165Z,25.10
2019-04-22T13:04:40.441Z,25.50
2019-04-22T13:07:11.394Z,25.60
2019-04-22T13:09:41.315Z,25.30
2019-04-22T13:12:11.093Z,25.20
2019-04-22T13:14:41.038Z,25.40
2019-04-22T13:17:12.203Z,25.30
2019-04-22T13:19:42.444Z,25.40
2019-04-22T13:22:12.647Z,25.30
2019-04-22T13:24:43.865Z,25.40
2019-04-22T13:27:14.940Z,25.10
2019-04-22T13:29:46.611Z,25.30
2019-04-22T13:32:16.547Z,25.10
2019-04-22T13:34:51.522Z,25.10
2019-04-22T13:37:19.149Z,25.30
2019-04-22T13:39:52.722Z,25.30
2019-04-22T13:42:24.067Z,25.50
2019-04-22T13:44:54.027Z,25.40
2019-04-22T13:47:41.958Z,25.40
2019-04-22T13:50:28.295Z,25.50
2019-04-22T13:52:55.024Z,25.40
2019-04-22T13:55:27.270Z,24.90
2019-04-22T13:57:45.371Z,24.70
2019-04-22T14:00:02.244Z,24.80
2019-04-22T14:02:50.770Z,24.90
2019-04-22T14:05:22.432Z,25.30
2019-04-22T14:07:55.250Z,25.00
2019-04-22T14:10:24.858Z,24.90
2019-04-22T14:12:55.086Z,25.10
2019-04-22T14:15:25.064Z,25.10
2019-04-22T14:17:54.798Z,25.10
2019-04-22T14:20:27.710Z,25.30
2019-04-22T14:22:56.742Z,25.20
2019-04-22T14:25:26.499Z,25.10
2019-04-22T14:28:01.925Z,25.30
2019-04-22T14:30:28.602Z,25.20
2019-04-22T14:32:58.447Z,25.30
2019-04-22T14:35:29.164Z,25.30
2019-04-22T14:38:01.298Z,25.20
2019-04-22T14:41:00.862Z,25.10
2019-04-22T14:43:59.972Z,24.90
2019-04-22T14:46:30.211Z,24.70
2019-04-22T14:48:56.000Z,24.50
2019-04-22T14:51:25.483Z,24.50
2019-04-22T14:53:56.649Z,24.60
2019-04-22T14:56:08.559Z,24.20
2019-04-22T14:58:39.009Z,24.00
2019-04-22T15:01:10.777Z,23.70
2019-04-22T15:03:44.059Z,23.90
2019-04-22T15:06:12.619Z,23.80
2019-04-22T15:08:42.792Z,23.70
2019-04-22T15:11:13.106Z,23.80
2019-04-22T15:13:43.416Z,23.90
2019-04-22T15:16:46.941Z,23.70
2019-04-22T15:19:25.923Z,23.50
2019-04-22T15:21:56.806Z,23.30
2019-04-22T15:24:27.498Z,23.20
2019-04-22T15:26:58.742Z,23.20
2019-04-22T15:29:29.632Z,23.10
2019-04-22T15:47:24.967Z,22.50
2019-04-22T15:50:05.986Z,22.50
2019-04-22T15:52:40.707Z,22.40
2019-04-22T15:55:09.015Z,22.50
2019-04-22T15:57:39.885Z,22.30
2019-04-22T16:00:22.551Z,22.40
2019-04-22T16:02:41.465Z,22.40
2019-04-22T16:05:13.099Z,22.50
2019-04-22T16:07:43.966Z,22.40
2019-04-22T16:10:15.440Z,22.40
2019-04-22T16:12:56.480Z,22.30
2019-04-22T16:15:18.326Z,22.10
2019-04-22T16:17:48.845Z,22.20
2019-04-22T16:20:19.269Z,22.00
2019-04-22T16:23:13.347Z,21.90
2019-04-22T16:26:11.771Z,21.70
2019-04-22T16:28:43.058Z,21.70
2019-04-22T16:31:13.450Z,21.70
2019-04-22T16:33:45.684Z,21.80
2019-04-22T16:36:14.656Z,21.60
2019-04-22T16:38:45.007Z,21.50
2019-04-22T16:41:14.819Z,21.30
2019-04-22T16:43:44.703Z,21.10
2019-04-22T16:46:15.792Z,21.00
2019-04-22T16:48:45.725Z,20.80
2019-04-22T16:51:16.265Z,20.50
2019-04-22T16:53:47.362Z,20.20
2019-04-22T16:56:17.215Z,20.00
2019-04-22T16:58:46.815Z,19.80
2019-04-22T17:01:34.834Z,19.80
2019-04-22T17:04:14.575Z,19.70
2019-04-22T17:06:45.492Z,19.50
2019-04-22T17:09:17.485Z,19.10
2019-04-22T17:11:47.949Z,19.00
2019-04-22T17:14:25.420Z,18.90
2019-04-22T17:16:50.603Z,18.90
2019-04-22T17:19:21.667Z,18.70
2019-04-22T17:21:51.411Z,18.50
2019-04-22T17:24:21.637Z,18.40
2019-04-22T17:26:52.598Z,18.40
2019-04-22T17:29:22.813Z,18.20
2019-04-22T17:31:58.457Z,17.90
2019-04-22T17:34:23.796Z,17.70
2019-04-22T17:36:53.339Z,17.60
2019-04-22T17:39:35.947Z,17.40
2019-04-22T17:42:15.702Z,17.30
2019-04-22T17:44:48.076Z,17.20
2019-04-22T17:47:36.985Z,17.10
2019-04-22T17:50:20.270Z,17.00
2019-04-22T17:52:51.198Z,16.90
2019-04-22T17:55:21.396Z,16.80
2019-04-22T17:57:49.232Z,16.80
2019-04-22T18:00:19.035Z,16.60
2019-04-22T18:02:48.664Z,16.50
2019-04-22T18:05:09.216Z,16.40
2019-04-22T18:07:54.490Z,16.30
2019-04-22T18:10:32.900Z,16.30
2019-04-22T18:13:07.195Z,16.10
2019-04-22T18:15:35.334Z,16.00
2019-04-22T18:18:09.107Z,15.90
2019-04-22T18:20:29.331Z,15.70
2019-04-22T18:22:56.740Z,15.60
2019-04-22T18:25:34.095Z,15.50
2019-04-22T18:30:34.734Z,15.40
2019-04-22T18:33:12.970Z,15.40
2019-04-22T18:35:39.355Z,15.20
2019-04-22T18:38:28.018Z,15.20
2019-04-22T18:40:44.797Z,15.20
2019-04-22T18:43:26.079Z,15.20
2019-04-22T18:45:54.545Z,15.30
2019-04-22T18:48:15.352Z,15.20
2019-04-22T18:51:06.572Z,15.20
2019-04-22T18:53:53.803Z,15.10
2019-04-22T18:56:37.597Z,15.10
2019-04-22T18:58:54.922Z,15.00
2019-04-22T19:01:15.522Z,15.00
2019-04-22T19:03:55.230Z,14.90
2019-04-22T19:09:11.246Z,14.70
2019-04-22T19:11:43.391Z,14.60
2019-04-22T19:14:10.733Z,14.50
2019-04-22T19:17:07.093Z,14.50
2019-04-22T19:21:47.688Z,14.40
2019-04-22T19:24:14.949Z,14.30
2019-04-22T19:26:55.466Z,14.30
2019-04-22T19:29:18.621Z,14.20
2019-04-22T19:31:52.617Z,14.20
2019-04-22T19:34:20.595Z,14.20
2019-04-22T19:36:57.267Z,14.20
2019-04-22T19:39:22.785Z,14.10
2019-04-22T19:42:01.889Z,14.10
2019-04-22T19:44:34.267Z,14.10
2019-04-22T19:47:21.211Z,14.00
2019-04-22T19:49:38.298Z,13.90
2019-04-22T19:52:11.456Z,14.00
2019-04-22T19:54:40.703Z,13.90
2019-04-22T19:57:07.197Z,13.90
2019-04-22T19:59:42.674Z,13.90
2019-04-22T20:02:23.579Z,13.90
2019-04-22T20:05:11.081Z,13.90
2019-04-22T20:07:39.507Z,13.80
2019-04-22T20:10:19.099Z,13.70
2019-04-22T20:12:47.150Z,13.70
2019-04-22T20:15:14.234Z,13.80
2019-04-22T20:18:11.391Z,13.90
2019-04-22T20:20:22.799Z,14.00
2019-04-22T20:22:50.623Z,13.90
2019-04-22T20:25:14.568Z,14.00
2019-04-22T20:28:00.030Z,14.00
2019-04-22T20:30:29.978Z,14.10
2019-04-22T20:32:56.611Z,14.10
2019-04-22T20:35:32.735Z,14.00
2019-04-22T20:38:02.922Z,14.00
2019-04-22T20:40:33.157Z,14.00
2019-04-22T20:43:07.656Z,14.00
2019-04-22T20:45:39.986Z,14.00
2019-04-22T20:47:58.836Z,14.00
2019-04-22T20:50:41.236Z,14.00
2019-04-22T20:53:18.612Z,13.90
2019-04-22T20:55:41.976Z,13.90
2019-04-22T20:58:18.167Z,14.00
2019-04-22T21:00:45.331Z,13.90
2019-04-22T21:03:11.579Z,13.90
2019-04-22T21:05:44.490Z,13.80
2019-04-22T21:08:23.874Z,13.80
2019-04-22T21:10:45.592Z,13.90
2019-04-22T21:13:20.472Z,13.70
2019-04-22T21:16:04.083Z,13.70
2019-04-22T21:18:25.353Z,13.70
2019-04-22T21:21:02.542Z,13.60
2019-04-22T21:23:26.458Z,13.60
2019-04-22T21:26:02.307Z,13.60
2019-04-22T21:28:36.744Z,13.60
2019-04-22T21:31:05.806Z,13.60
2019-04-22T21:33:31.460Z,13.50
2019-04-22T21:36:16.856Z,13.50
2019-04-22T21:38:39.988Z,13.40
2019-04-22T21:41:12.941Z,13.40
2019-04-22T21:49:31.078Z,13.30
2019-04-22T21:51:58.423Z,13.30
2019-04-22T21:54:34.434Z,13.20
2019-04-22T21:57:35.622Z,13.20
2019-04-22T21:59:54.429Z,13.20
2019-04-22T22:02:39.297Z,13.10
2019-04-22T22:04:49.067Z,13.00
2019-04-22T22:07:13.225Z,13.00
2019-04-22T22:09:53.963Z,12.90
2019-04-22T22:12:34.991Z,12.80
2019-04-22T22:15:04.072Z,12.80
2019-04-22T22:17:31.208Z,12.80
2019-04-22T22:19:57.534Z,12.70
2019-04-22T22:22:45.494Z,12.80
2019-04-22T22:25:02.852Z,12.70
2019-04-22T22:27:37.184Z,12.70
2019-04-22T22:30:34.859Z,12.70
2019-04-22T22:32:40.743Z,12.80
2019-04-22T22:35:16.461Z,12.80
2019-04-22T22:37:37.520Z,12.70
2019-04-22T22:40:01.201Z,12.70
2019-04-22T22:42:33.620Z,12.60
2019-04-22T22:45:07.764Z,12.60
2019-04-22T22:47:44.590Z,12.60
2019-04-22T22:50:20.582Z,12.50
2019-04-22T22:53:00.900Z,12.50
2019-04-22T22:55:22.023Z,12.40
2019-04-22T22:58:01.354Z,12.40
2019-04-22T23:00:24.548Z,12.30
2019-04-22T23:03:17.075Z,12.30
2019-04-22T23:05:35.532Z,12.30
2019-04-22T23:08:01.977Z,12.30
2019-04-22T23:10:44.332Z,12.30
2019-04-22T23:13:08.593Z,12.20
2019-04-22T23:15:27.536Z,12.20
2019-04-22T23:17:45.889Z,12.20
2019-04-22T23:20:26.671Z,12.10
2019-04-22T23:23:14.321Z,12.20
2019-04-22T23:25:48.155Z,12.20
2019-04-22T23:28:30.052Z,12.20
2019-04-22T23:31:23.585Z,12.20
2019-04-22T23:34:02.911Z,12.30
2019-04-22T23:36:56.413Z,12.20
2019-04-22T23:39:33.323Z,12.20
2019-04-22T23:42:06.260Z,12.30
2019-04-22T23:44:31.929Z,12.20
2019-04-22T23:47:08.519Z,12.20
2019-04-22T23:49:43.195Z,12.10
2019-04-22T23:52:22.743Z,12.10
2019-04-22T23:54:58.740Z,12.10
2019-04-22T23:57:33.227Z,12.00
